Time;durP1;ratioP1;P1;durP2;ratioP2;P2;SDS_P1;SDS_P2;PMS_P1;PMS_P2;Temp;Humidity;BMP_temperature;BMP_pressure;BME280_temperature;BME280_humidity;BME280_pressure;Samples;Min_cycle;Max_cycle;Signal;HPM_P1;HPM_P2
2023/05/04 00:01:09;;;;;;;1.30;1.20;;;19.40;46.70;;;;;;5010707;28;20238;-70
2023/05/04 00:03:35;;;;;;;1.40;1.30;;;19.40;46.60;;;;;;5003475;28;20278;-70
2023/05/04 00:06:01;;;;;;;1.27;1.17;;;19.40;46.60;;;;;;5014838;28;20512;-70
2023/05/04 00:08:27;;;;;;;1.40;1.30;;;19.40;46.60;;;;;;4994634;28;20894;-70
2023/05/04 00:10:54;;;;;;;1.33;1.27;;;19.40;46.70;;;;;;5004164;28;20218;-71
2023/05/04 00:13:20;;;;;;;1.83;1.73;;;19.40;46.60;;;;;;5006780;28;20233;-70
2023/05/04 00:15:45;;;;;;;1.50;1.40;;;19.40;46.70;;;;;;5005900;28;20472;-71
2023/05/04 00:18:11;;;;;;;1.57;1.47;;;19.40;46.70;;;;;;5009103;28;20587;-70
2023/05/04 00:20:37;;;;;;;1.33;1.23;;;19.40;46.60;;;;;;5005723;28;20713;-71
2023/05/04 00:23:02;;;;;;;1.50;1.40;;;19.40;46.60;;;;;;5005310;28;20736;-70
2023/05/04 00:25:28;;;;;;;1.40;1.30;;;19.40;46.60;;;;;;5008294;28;20230;-71
2023/05/04 00:27:53;;;;;;;1.23;1.20;;;19.40;46.70;;;;;;5015805;28;20211;-70
2023/05/04 00:30:19;;;;;;;1.50;1.40;;;19.40;46.70;;;;;;5016476;28;20527;-70
2023/05/04 00:32:45;;;;;;;1.40;1.30;;;19.40;46.70;;;;;;5001551;28;20219;-70
2023/05/04 00:35:11;;;;;;;1.50;1.40;;;19.40;46.70;;;;;;5020579;28;20223;-70
2023/05/04 00:37:37;;;;;;;1.20;1.13;;;19.40;46.60;;;;;;5017774;28;20851;-71
2023/05/04 00:40:02;;;;;;;1.30;1.20;;;19.40;46.60;;;;;;5017329;28;20463;-72
2023/05/04 00:42:28;;;;;;;1.50;1.40;;;19.40;46.60;;;;;;5020095;28;20223;-70
2023/05/04 00:44:53;;;;;;;1.30;1.20;;;19.40;46.60;;;;;;5016791;28;20219;-70
2023/05/04 00:47:20;;;;;;;1.87;1.23;;;19.40;46.70;;;;;;5013906;28;20712;-70
2023/05/04 00:49:45;;;;;;;1.33;1.23;;;19.40;46.70;;;;;;5014806;28;20229;-70
2023/05/04 00:52:13;;;;;;;1.47;1.37;;;19.40;46.60;;;;;;5009579;28;21246;-70
2023/05/04 00:54:41;;;;;;;1.50;1.40;;;19.40;46.70;;;;;;5006605;28;20219;-70
2023/05/04 00:57:07;;;;;;;1.40;1.30;;;19.40;46.60;;;;;;5008073;28;20437;-70
2023/05/04 00:59:33;;;;;;;1.40;1.30;;;19.40;46.60;;;;;;5007068;28;20442;-71
2023/05/04 01:01:58;;;;;;;1.30;1.20;;;19.40;46.60;;;;;;5007729;28;20782;-70
2023/05/04 01:04:24;;;;;;;1.20;1.10;;;19.40;46.70;;;;;;5001965;28;20212;-71
2023/05/04 01:07:07;;;;;;;1.30;1.20;;;19.40;46.60;;;;;;5004064;28;20223;-70
2023/05/04 01:09:38;;;;;;;1.40;1.30;;;19.40;46.60;;;;;;5015253;28;20500;-70
2023/05/04 01:12:16;;;;;;;1.30;1.20;;;19.40;46.70;;;;;;4992457;28;21051;-70
2023/05/04 01:14:42;;;;;;;1.50;1.40;;;19.40;46.70;;;;;;5018080;28;20942;-70
2023/05/04 01:17:08;;;;;;;2.80;1.30;;;19.40;46.60;;;;;;5017416;28;21153;-70
2023/05/04 01:19:34;;;;;;;1.60;1.50;;;19.40;46.70;;;;;;5018739;28;20527;-70
2023/05/04 01:22:00;;;;;;;1.30;1.20;;;19.40;46.60;;;;;;5013996;28;20219;-70
2023/05/04 01:24:27;;;;;;;1.33;1.23;;;19.40;46.60;;;;;;5015187;28;20277;-70
2023/05/04 01:26:59;;;;;;;1.40;1.30;;;19.40;46.60;;;;;;5009159;28;20211;-70
2023/05/04 01:30:01;;;;;;;1.20;1.10;;;19.40;46.60;;;;;;5005083;28;20488;-70
2023/05/04 01:32:29;;;;;;;2.27;1.27;;;19.40;46.60;;;;;;4993391;28;23106;-70
2023/05/04 01:34:55;;;;;;;1.50;1.40;;;19.40;46.60;;;;;;5005247;28;20438;-70
2023/05/04 01:37:21;;;;;;;1.40;1.30;;;19.40;46.60;;;;;;5007680;28;20495;-70
2023/05/04 01:39:46;;;;;;;1.40;1.30;;;19.40;46.60;;;;;;5017494;28;20555;-71
2023/05/04 01:42:12;;;;;;;1.30;1.20;;;19.40;46.70;;;;;;5018937;28;20227;-71
2023/05/04 01:44:38;;;;;;;1.50;1.40;;;19.40;46.60;;;;;;5001233;28;20306;-70
2023/05/04 01:47:03;;;;;;;1.40;1.30;;;19.40;46.70;;;;;;5012702;28;20231;-71
2023/05/04 01:49:29;;;;;;;1.60;1.50;;;19.40;46.60;;;;;;5005070;28;20492;-70
2023/05/04 01:51:54;;;;;;;1.60;1.50;;;19.40;46.60;;;;;;5009139;28;20645;-71
2023/05/04 01:54:20;;;;;;;1.47;1.37;;;19.40;46.60;;;;;;5011052;28;20218;-70
2023/05/04 01:56:45;;;;;;;1.37;1.27;;;19.40;46.60;;;;;;4999423;28;20215;-70
2023/05/04 01:59:11;;;;;;;2.10;1.43;;;19.40;46.70;;;;;;4997219;28;20215;-71
2023/05/04 02:01:36;;;;;;;1.27;1.17;;;19.40;46.60;;;;;;5016713;28;20599;-71
2023/05/04 02:04:02;;;;;;;1.23;1.13;;;19.40;46.60;;;;;;5006859;28;20302;-70
2023/05/04 02:06:28;;;;;;;1.37;1.27;;;19.40;46.70;;;;;;5008889;28;20302;-70
2023/05/04 02:08:53;;;;;;;1.40;1.30;;;19.40;46.60;;;;;;5010752;28;20222;-71
2023/05/04 02:11:19;;;;;;;1.40;1.30;;;19.40;46.60;;;;;;5011285;28;20630;-70
2023/05/04 02:13:45;;;;;;;1.60;1.50;;;19.40;46.60;;;;;;5006720;28;20583;-70
2023/05/04 02:16:11;;;;;;;2.30;1.60;;;19.40;46.60;;;;;;5003702;28;20583;-71
2023/05/04 02:18:36;;;;;;;1.30;1.20;;;19.40;46.60;;;;;;5015182;28;20301;-70
2023/05/04 02:21:02;;;;;;;1.60;1.50;;;19.40;46.60;;;;;;5020703;28;20211;-70
2023/05/04 02:23:28;;;;;;;1.40;1.30;;;19.40;46.60;;;;;;5013597;28;20230;-71
2023/05/04 02:25:54;;;;;;;1.40;1.30;;;19.40;46.60;;;;;;5004971;28;20355;-70
2023/05/04 02:28:20;;;;;;;1.50;1.40;;;19.40;46.60;;;;;;4998049;28;20464;-71
2023/05/04 02:30:46;;;;;;;1.70;1.60;;;19.40;46.70;;;;;;4974094;28;1058955;-71
2023/05/04 02:33:12;;;;;;;3.90;1.30;;;19.40;46.60;;;;;;5007299;28;20475;-71
2023/05/04 02:35:37;;;;;;;1.30;1.20;;;19.40;46.60;;;;;;4996326;28;20223;-70
2023/05/04 02:38:03;;;;;;;1.60;1.50;;;19.40;46.60;;;;;;5006975;28;20257;-71
2023/05/04 02:40:28;;;;;;;1.47;1.37;;;19.40;46.60;;;;;;5010739;28;20231;-71
2023/05/04 02:42:54;;;;;;;1.43;1.33;;;19.40;46.60;;;;;;5010801;28;20238;-71
2023/05/04 02:45:20;;;;;;;1.50;1.40;;;19.40;46.60;;;;;;5012347;28;20229;-71
2023/05/04 02:47:45;;;;;;;1.50;1.40;;;19.40;46.60;;;;;;5003935;28;20943;-70
2023/05/04 02:50:11;;;;;;;1.37;1.27;;;19.40;46.60;;;;;;5016378;28;20701;-70
2023/05/04 02:52:37;;;;;;;1.60;1.50;;;19.40;46.70;;;;;;5019004;28;20227;-71
2023/05/04 02:55:02;;;;;;;1.30;1.20;;;19.40;46.70;;;;;;5015873;28;20227;-70
2023/05/04 02:57:28;;;;;;;1.73;1.63;;;19.30;46.60;;;;;;5011309;28;20230;-70
2023/05/04 02:59:53;;;;;;;1.40;1.30;;;19.40;46.60;;;;;;5015877;28;20239;-70
2023/05/04 03:02:19;;;;;;;1.43;1.33;;;19.40;46.70;;;;;;5012111;28;20273;-71
2023/05/04 03:04:45;;;;;;;1.77;1.67;;;19.40;46.60;;;;;;5015262;28;20714;-71
2023/05/04 03:07:10;;;;;;;1.50;1.40;;;19.30;46.60;;;;;;5016399;28;20218;-71
2023/05/04 03:09:36;;;;;;;1.57;1.47;;;19.40;46.70;;;;;;5012931;28;20309;-71
2023/05/04 03:12:03;;;;;;;1.70;1.60;;;19.40;46.70;;;;;;5015874;28;20219;-70
2023/05/04 03:14:28;;;;;;;1.40;1.30;;;19.40;46.70;;;;;;5014608;28;20215;-71
2023/05/04 03:16:54;;;;;;;1.60;1.50;;;19.40;46.70;;;;;;5015770;28;20479;-70
2023/05/04 03:19:20;;;;;;;1.70;1.60;;;19.30;46.60;;;;;;5015101;28;20219;-71
2023/05/04 03:21:47;;;;;;;1.40;1.30;;;19.40;46.60;;;;;;5015747;28;20255;-71
2023/05/04 03:24:12;;;;;;;1.60;1.50;;;19.30;46.60;;;;;;4994372;28;20426;-71
2023/05/04 03:26:38;;;;;;;1.50;1.40;;;19.40;46.70;;;;;;5015409;28;20426;-71
2023/05/04 03:29:03;;;;;;;1.40;1.30;;;19.40;46.70;;;;;;5014114;28;20227;-70
2023/05/04 03:31:29;;;;;;;1.33;1.23;;;19.30;46.60;;;;;;5015503;28;20285;-71
2023/05/04 03:33:55;;;;;;;1.63;1.53;;;19.40;46.70;;;;;;5011784;28;20310;-71
2023/05/04 03:36:20;;;;;;;1.50;1.40;;;19.40;46.70;;;;;;5015675;28;20317;-70
2023/05/04 03:38:46;;;;;;;1.50;1.40;;;19.30;46.60;;;;;;5008289;28;20226;-71
2023/05/04 03:41:11;;;;;;;1.77;1.67;;;19.30;46.60;;;;;;5013373;28;20229;-71
2023/05/04 03:43:37;;;;;;;1.60;1.50;;;19.30;46.60;;;;;;5012439;28;20238;-71
2023/05/04 03:46:03;;;;;;;1.60;1.50;;;19.30;46.60;;;;;;5009428;28;20214;-71
2023/05/04 03:48:28;;;;;;;1.27;1.17;;;19.30;46.60;;;;;;5010222;28;21349;-70
2023/05/04 03:50:54;;;;;;;1.60;1.50;;;19.40;46.70;;;;;;5011431;28;20699;-71
2023/05/04 03:53:20;;;;;;;1.83;1.73;;;19.30;46.60;;;;;;5014179;28;20260;-70
2023/05/04 03:55:45;;;;;;;1.80;1.27;;;19.40;46.70;;;;;;5016632;28;20226;-71
2023/05/04 03:58:11;;;;;;;1.57;1.47;;;19.40;46.70;;;;;;5000188;28;20226;-71
2023/05/04 04:00:36;;;;;;;1.50;1.40;;;19.30;46.60;;;;;;5013452;28;20289;-71
2023/05/04 04:03:02;;;;;;;1.60;1.50;;;19.30;46.60;;;;;;5005638;28;20222;-71
2023/05/04 04:05:27;;;;;;;1.60;1.50;;;19.40;46.70;;;;;;5009898;28;20223;-71
2023/05/04 04:07:53;;;;;;;1.50;1.40;;;19.30;46.60;;;;;;5008534;28;20314;-71
2023/05/04 04:10:18;;;;;;;1.60;1.50;;;19.30;46.60;;;;;;5001179;28;20218;-71
2023/05/04 04:12:44;;;;;;;1.77;1.67;;;19.30;46.60;;;;;;4989035;28;20249;-71
2023/05/04 04:15:10;;;;;;;1.50;1.40;;;19.30;46.70;;;;;;5005647;28;20594;-71
2023/05/04 04:17:36;;;;;;;1.70;1.50;;;19.30;46.60;;;;;;5002171;28;20227;-71
2023/05/04 04:20:01;;;;;;;1.60;1.50;;;19.30;46.60;;;;;;5006575;28;20427;-70
2023/05/04 04:22:27;;;;;;;1.73;1.50;;;19.30;46.70;;;;;;4999564;28;20301;-72
2023/05/04 04:24:52;;;;;;;1.40;1.30;;;19.30;46.60;;;;;;4986313;28;20218;-71
2023/05/04 04:27:18;;;;;;;1.97;1.87;;;19.30;46.60;;;;;;4990179;28;20229;-71
2023/05/04 04:29:43;;;;;;;1.70;1.60;;;19.40;46.70;;;;;;4992249;28;20341;-68
2023/05/04 04:32:09;;;;;;;1.80;1.70;;;19.40;46.70;;;;;;5000307;28;20276;-72
2023/05/04 04:34:35;;;;;;;1.60;1.50;;;19.30;46.60;;;;;;4998701;28;20605;-76
2023/05/04 04:37:00;;;;;;;1.57;1.47;;;19.40;46.70;;;;;;4990770;28;20250;-75
2023/05/04 04:39:26;;;;;;;1.60;1.50;;;19.30;46.60;;;;;;4998167;28;20327;-75
2023/05/04 04:41:51;;;;;;;1.70;1.60;;;19.40;46.70;;;;;;5001253;28;20271;-74
2023/05/04 04:44:17;;;;;;;1.70;1.60;;;19.30;46.60;;;;;;4990474;28;20231;-75
2023/05/04 04:46:44;;;;;;;1.60;1.50;;;19.40;47.50;;;;;;5012645;28;20322;-75
2023/05/04 04:49:11;;;;;;;1.40;1.30;;;19.40;46.70;;;;;;5006545;28;20212;-74
2023/05/04 04:51:37;;;;;;;1.70;1.60;;;19.30;46.60;;;;;;5013951;28;20526;-74
2023/05/04 04:54:02;;;;;;;1.63;1.53;;;19.30;46.60;;;;;;5016836;28;20856;-74
2023/05/04 04:56:28;;;;;;;1.60;1.50;;;19.30;46.70;;;;;;5011999;28;20223;-74
2023/05/04 04:58:54;;;;;;;1.70;1.60;;;19.40;46.60;;;;;;5008604;28;20509;-73
2023/05/04 05:01:19;;;;;;;1.53;1.43;;;19.40;46.70;;;;;;5011108;28;20292;-73
2023/05/04 05:03:45;;;;;;;1.73;1.63;;;19.40;46.70;;;;;;4999784;28;20239;-73
2023/05/04 05:06:11;;;;;;;1.60;1.50;;;19.40;46.60;;;;;;5004485;28;20227;-73
2023/05/04 05:08:38;;;;;;;1.67;1.57;;;19.30;46.60;;;;;;5007169;28;21045;-70
2023/05/04 05:11:04;;;;;;;1.70;1.60;;;19.40;46.60;;;;;;5003229;28;20436;-72
2023/05/04 05:13:30;;;;;;;1.43;1.33;;;19.40;46.60;;;;;;4972300;28;20471;-71
2023/05/04 05:15:56;;;;;;;1.53;1.43;;;19.40;46.60;;;;;;5003823;28;20422;-72
2023/05/04 05:18:22;;;;;;;1.60;1.50;;;19.40;46.50;;;;;;5010145;28;20258;-73
2023/05/04 05:20:48;;;;;;;1.73;1.63;;;19.40;46.60;;;;;;4994002;28;20222;-71
2023/05/04 05:23:13;;;;;;;1.53;1.43;;;19.40;46.60;;;;;;5009957;28;22878;-71
2023/05/04 05:25:39;;;;;;;1.67;1.57;;;19.40;46.50;;;;;;5012966;28;20227;-71
2023/05/04 05:28:05;;;;;;;1.50;1.40;;;19.40;46.50;;;;;;5017268;28;20227;-71
2023/05/04 05:30:30;;;;;;;1.67;1.57;;;19.40;46.40;;;;;;5011117;28;20233;-71
2023/05/04 05:32:56;;;;;;;2.03;1.93;;;19.40;46.50;;;;;;5001288;28;20232;-71
2023/05/04 05:35:21;;;;;;;1.70;1.60;;;19.40;46.50;;;;;;5007671;28;20300;-71
2023/05/04 05:37:48;;;;;;;1.73;1.63;;;19.40;46.50;;;;;;4998339;28;20312;-71
2023/05/04 05:40:14;;;;;;;1.57;1.47;;;19.40;46.60;;;;;;5008215;28;21937;-71
2023/05/04 05:42:41;;;;;;;1.60;1.50;;;19.40;46.60;;;;;;5010240;28;20456;-71
2023/05/04 05:45:09;;;;;;;1.90;1.80;;;19.40;46.60;;;;;;5006503;28;20587;-72
2023/05/04 05:47:35;;;;;;;1.73;1.63;;;19.40;46.60;;;;;;5004625;28;20519;-71
2023/05/04 05:50:01;;;;;;;2.07;1.87;;;19.40;46.60;;;;;;5004657;28;20549;-72
2023/05/04 05:52:27;;;;;;;1.80;1.70;;;19.40;46.60;;;;;;5004211;28;22672;-71
2023/05/04 05:54:52;;;;;;;1.70;1.60;;;19.40;46.50;;;;;;4984797;28;20444;-71
2023/05/04 05:57:19;;;;;;;1.50;1.40;;;19.40;46.60;;;;;;5008684;28;20230;-71
2023/05/04 05:59:45;;;;;;;1.50;1.40;;;19.40;46.50;;;;;;5008423;28;20218;-71
2023/05/04 06:02:13;;;;;;;1.87;1.60;;;19.40;46.50;;;;;;5005066;28;20450;-71
2023/05/04 06:04:42;;;;;;;1.60;1.50;;;19.40;46.50;;;;;;5005892;28;20441;-72
2023/05/04 06:07:07;;;;;;;1.70;1.60;;;19.40;46.50;;;;;;5009151;28;20453;-71
2023/05/04 06:09:33;;;;;;;1.60;1.50;;;19.40;46.60;;;;;;5010774;28;21060;-73
2023/05/04 06:11:59;;;;;;;1.73;1.63;;;19.40;46.50;;;;;;4995868;28;20740;-72
2023/05/04 06:14:25;;;;;;;1.80;1.70;;;19.40;46.50;;;;;;5006637;28;20451;-71
2023/05/04 06:16:50;;;;;;;1.60;1.50;;;19.40;46.50;;;;;;4993199;28;20220;-71
2023/05/04 06:19:16;;;;;;;1.50;1.40;;;19.40;46.50;;;;;;4997021;28;20290;-70
2023/05/04 06:21:51;;;;;;;2.10;2.00;;;19.40;46.60;;;;;;5002542;28;20211;-71
2023/05/04 06:24:16;;;;;;;2.33;1.70;;;19.40;46.50;;;;;;4996393;28;20255;-71
2023/05/04 06:26:42;;;;;;;1.70;1.60;;;19.40;46.50;;;;;;4999516;28;20574;-70
2023/05/04 06:29:07;;;;;;;1.97;1.87;;;19.40;46.50;;;;;;4996751;28;20215;-71
2023/05/04 06:31:33;;;;;;;1.70;1.60;;;19.40;46.50;;;;;;4998823;28;20579;-70
2023/05/04 06:33:58;;;;;;;1.70;1.60;;;19.40;46.50;;;;;;5006063;28;20242;-71
2023/05/04 06:36:27;;;;;;;1.93;1.83;;;19.40;46.50;;;;;;5009345;28;20243;-71
2023/05/04 06:38:54;;;;;;;2.00;1.90;;;19.40;46.60;;;;;;5002896;28;20633;-70
2023/05/04 06:41:20;;;;;;;1.57;1.47;;;19.40;47.30;;;;;;5010116;28;20529;-71
2023/05/04 06:43:45;;;;;;;1.80;1.70;;;19.40;46.50;;;;;;4992900;28;20452;-70
2023/05/04 06:46:11;;;;;;;1.60;1.50;;;19.40;46.50;;;;;;4999188;28;20218;-70
2023/05/04 06:48:36;;;;;;;1.70;1.60;;;19.40;46.50;;;;;;5004013;28;20216;-71
2023/05/04 06:51:02;;;;;;;1.70;1.60;;;19.40;46.50;;;;;;5002286;28;20255;-70
2023/05/04 06:53:28;;;;;;;1.80;1.70;;;19.40;46.50;;;;;;5008925;28;20334;-70
2023/05/04 06:55:53;;;;;;;1.67;1.57;;;19.40;46.50;;;;;;4996302;28;20717;-70
2023/05/04 06:58:20;;;;;;;1.47;1.37;;;19.40;46.50;;;;;;4998484;28;20212;-71
2023/05/04 07:00:46;;;;;;;3.70;1.70;;;19.40;46.40;;;;;;5008615;28;21666;-70
2023/05/04 07:03:12;;;;;;;1.60;1.50;;;19.40;46.40;;;;;;5012136;28;20443;-70
2023/05/04 07:05:37;;;;;;;1.50;1.40;;;19.40;46.50;;;;;;5003232;28;20769;-71
2023/05/04 07:08:03;;;;;;;1.60;1.50;;;19.40;46.40;;;;;;4999377;28;20222;-70
2023/05/04 07:10:29;;;;;;;1.60;1.50;;;19.40;46.50;;;;;;4994305;28;20230;-70
2023/05/04 07:12:54;;;;;;;1.90;1.80;;;19.40;46.40;;;;;;5005057;28;20309;-71
2023/05/04 07:15:20;;;;;;;1.57;1.47;;;19.40;46.40;;;;;;5001222;28;21021;-70
2023/05/04 07:17:46;;;;;;;1.73;1.63;;;19.40;46.40;;;;;;4992480;28;20346;-71
2023/05/04 07:20:14;;;;;;;1.97;1.87;;;19.40;46.40;;;;;;5008650;28;20253;-70
2023/05/04 07:22:40;;;;;;;1.70;1.60;;;19.40;46.40;;;;;;4999297;28;20430;-71
2023/05/04 07:25:06;;;;;;;1.90;1.80;;;19.40;46.50;;;;;;5007382;28;20431;-72
2023/05/04 07:27:33;;;;;;;1.60;1.50;;;19.50;46.50;;;;;;5005756;28;20218;-72
2023/05/04 07:30:00;;;;;;;1.67;1.57;;;19.50;46.60;;;;;;5008632;28;20460;-71
2023/05/04 07:32:26;;;;;;;1.70;1.60;;;19.50;46.50;;;;;;5003080;28;20458;-71
2023/05/04 07:34:51;;;;;;;1.70;1.60;;;19.40;46.40;;;;;;4985624;28;20543;-70
2023/05/04 07:37:17;;;;;;;1.70;1.60;;;19.50;46.50;;;;;;5001962;28;20287;-71
2023/05/04 07:39:43;;;;;;;1.70;1.60;;;19.50;46.50;;;;;;5001075;28;20569;-71
2023/05/04 07:42:10;;;;;;;1.70;1.60;;;19.50;46.50;;;;;;5006879;28;20426;-70
2023/05/04 07:44:36;;;;;;;1.63;1.40;;;19.50;46.50;;;;;;5006477;28;20751;-70
2023/05/04 07:47:02;;;;;;;1.50;1.40;;;19.50;46.50;;;;;;4990357;28;20427;-70
2023/05/04 07:49:27;;;;;;;1.77;1.67;;;19.50;46.50;;;;;;5003362;28;20206;-70
2023/05/04 07:51:53;;;;;;;1.87;1.77;;;19.50;46.50;;;;;;5008067;28;20331;-71
2023/05/04 07:54:18;;;;;;;1.97;1.67;;;19.50;46.50;;;;;;5010521;28;20268;-71
2023/05/04 07:56:44;;;;;;;1.90;1.80;;;19.50;46.40;;;;;;5007455;28;20210;-70
2023/05/04 07:59:10;;;;;;;1.60;1.50;;;19.50;46.40;;;;;;5005388;28;21210;-70
2023/05/04 08:01:35;;;;;;;1.70;1.60;;;19.50;46.40;;;;;;5009271;28;20329;-71
2023/05/04 08:04:01;;;;;;;1.70;1.60;;;19.50;46.50;;;;;;5009873;28;20318;-70
2023/05/04 08:06:27;;;;;;;1.80;1.70;;;19.50;46.50;;;;;;5004215;28;20239;-70
2023/05/04 08:08:52;;;;;;;1.47;1.37;;;19.50;46.50;;;;;;5007543;28;20223;-70
2023/05/04 08:11:18;;;;;;;1.43;1.33;;;19.50;46.40;;;;;;5014261;28;20307;-70
2023/05/04 08:13:45;;;;;;;2.40;1.67;;;19.50;46.50;;;;;;5009561;28;20273;-71
2023/05/04 08:16:11;;;;;;;1.77;1.50;;;19.50;46.50;;;;;;5003246;28;20280;-70
2023/05/04 08:18:37;;;;;;;1.93;1.43;;;19.50;46.50;;;;;;5009119;28;20439;-70
2023/05/04 08:21:03;;;;;;;1.50;1.40;;;19.50;46.50;;;;;;5011057;28;20464;-70
2023/05/04 08:23:29;;;;;;;1.80;1.70;;;19.50;46.60;;;;;;5011943;28;21013;-70
2023/05/04 08:25:54;;;;;;;1.63;1.53;;;19.50;46.50;;;;;;5014067;28;20451;-70
2023/05/04 08:28:20;;;;;;;1.83;1.60;;;19.50;46.50;;;;;;5008027;28;20617;-72
2023/05/04 08:30:45;;;;;;;1.83;1.70;;;19.50;46.50;;;;;;5012348;28;20226;-72
2023/05/04 08:33:11;;;;;;;1.60;1.50;;;19.50;46.50;;;;;;5016850;28;20226;-70
2023/05/04 08:35:37;;;;;;;1.67;1.57;;;19.50;46.50;;;;;;5014917;28;20233;-70
2023/05/04 08:38:03;;;;;;;1.90;1.80;;;19.50;46.90;;;;;;5012469;28;20629;-70
2023/05/04 08:40:28;;;;;;;1.83;1.73;;;19.50;46.50;;;;;;5017276;28;20678;-70
2023/05/04 08:42:54;;;;;;;1.60;1.50;;;19.50;46.50;;;;;;5008885;28;20504;-71
2023/05/04 08:45:21;;;;;;;1.63;1.53;;;19.50;46.50;;;;;;5014010;28;20617;-70
2023/05/04 08:47:46;;;;;;;1.80;1.70;;;19.50;46.50;;;;;;5000973;28;20228;-71
2023/05/04 08:50:12;;;;;;;1.60;1.50;;;19.50;46.50;;;;;;5004681;28;21107;-70
2023/05/04 08:52:46;;;;;;;1.70;1.60;;;19.50;46.50;;;;;;5009698;28;20222;-70
2023/05/04 08:55:12;;;;;;;1.37;1.27;;;19.50;46.50;;;;;;5009178;28;20280;-70
2023/05/04 08:57:41;;;;;;;1.70;1.60;;;19.50;46.50;;;;;;5004115;28;20958;-70
2023/05/04 09:00:07;;;;;;;1.50;1.40;;;19.50;46.50;;;;;;5003801;28;20484;-71
2023/05/04 09:02:33;;;;;;;1.73;1.63;;;19.50;46.60;;;;;;5014365;28;20468;-69
2023/05/04 09:05:00;;;;;;;1.50;1.40;;;19.50;46.60;;;;;;5010741;28;20456;-70
2023/05/04 09:07:26;;;;;;;1.50;1.40;;;19.50;46.60;;;;;;5009067;28;20261;-70
2023/05/04 09:09:51;;;;;;;1.77;1.67;;;19.50;46.70;;;;;;5014460;28;20458;-70
2023/05/04 09:12:17;;;;;;;1.40;1.30;;;19.60;46.70;;;;;;5009708;28;20222;-70
2023/05/04 09:14:45;;;;;;;1.60;1.50;;;19.50;46.70;;;;;;5013548;28;20242;-70
2023/05/04 09:17:28;;;;;;;1.40;1.30;;;19.50;46.60;;;;;;5010074;28;20485;-69
2023/05/04 09:19:58;;;;;;;1.60;1.50;;;19.50;46.70;;;;;;5014276;28;20436;-70
2023/05/04 09:22:23;;;;;;;1.70;1.60;;;19.60;46.80;;;;;;5013317;28;20452;-70
2023/05/04 09:24:49;;;;;;;1.67;1.57;;;19.60;46.80;;;;;;5010806;28;20467;-70
2023/05/04 09:27:16;;;;;;;1.70;1.60;;;19.50;46.70;;;;;;5009812;28;20218;-70
2023/05/04 09:29:42;;;;;;;1.50;1.40;;;19.60;46.80;;;;;;5013458;28;20219;-70
2023/05/04 09:32:13;;;;;;;1.50;1.40;;;19.60;46.80;;;;;;5008165;28;20428;-69
2023/05/04 09:34:49;;;;;;;1.50;1.40;;;19.60;46.90;;;;;;5010425;28;20471;-70
2023/05/04 09:37:15;;;;;;;2.07;1.97;;;19.60;46.70;;;;;;5013740;28;20456;-69
2023/05/04 09:39:52;;;;;;;1.77;1.67;;;19.60;46.80;;;;;;5014421;28;20425;-70
2023/05/04 09:42:19;;;;;;;1.60;1.50;;;19.60;46.80;;;;;;5016456;28;20739;-70
2023/05/04 09:44:45;;;;;;;1.83;1.73;;;19.60;46.80;;;;;;5013268;28;20911;-70
2023/05/04 09:47:11;;;;;;;1.70;1.60;;;19.60;46.80;;;;;;5011877;28;20520;-70
2023/05/04 09:49:37;;;;;;;1.63;1.53;;;19.60;46.80;;;;;;4998349;28;20246;-70
2023/05/04 09:52:05;;;;;;;1.60;1.50;;;19.60;46.80;;;;;;5009341;28;20449;-69
2023/05/04 09:54:37;;;;;;;1.63;1.53;;;19.60;46.80;;;;;;4998445;28;20482;-71
2023/05/04 09:57:11;;;;;;;1.60;1.50;;;19.60;46.80;;;;;;5001190;28;20913;-70
2023/05/04 09:59:38;;;;;;;1.60;1.50;;;19.60;46.70;;;;;;5002994;28;20445;-70
2023/05/04 10:02:05;;;;;;;1.50;1.40;;;19.60;46.80;;;;;;5008607;28;20513;-70
2023/05/04 10:04:32;;;;;;;1.80;1.70;;;19.60;46.80;;;;;;4993758;28;21010;-71
2023/05/04 10:07:02;;;;;;;1.50;1.40;;;19.60;46.70;;;;;;5005175;28;20476;-70
2023/05/04 10:09:29;;;;;;;1.77;1.67;;;19.60;46.70;;;;;;5004965;28;20443;-69
2023/05/04 10:11:58;;;;;;;1.50;1.40;;;19.60;46.70;;;;;;5003353;28;21065;-70
2023/05/04 10:14:23;;;;;;;1.60;1.50;;;19.60;46.70;;;;;;5006816;28;20570;-69
2023/05/04 10:17:01;;;;;;;1.80;1.70;;;19.60;46.70;;;;;;5010372;28;21382;-70
2023/05/04 10:19:48;;;;;;;1.77;1.67;;;19.60;46.70;;;;;;4992120;28;20316;-70
2023/05/04 10:22:30;;;;;;;1.50;1.40;;;19.60;46.70;;;;;;4993196;28;20471;-70
2023/05/04 10:25:40;;;;;;;1.60;1.50;;;19.60;46.70;;;;;;5008222;28;20850;-70
2023/05/04 10:28:20;;;;;;;1.50;1.40;;;19.60;46.60;;;;;;5007908;28;20465;-71
2023/05/04 10:30:46;;;;;;;2.30;2.10;;;19.60;46.70;;;;;;5001966;28;20478;-70
2023/05/04 10:33:12;;;;;;;1.50;1.40;;;19.60;47.50;;;;;;4991058;28;20540;-71
2023/05/04 10:35:51;;;;;;;1.60;1.50;;;19.60;46.70;;;;;;4993323;28;20231;-71
2023/05/04 10:38:17;;;;;;;1.63;1.53;;;19.60;46.70;;;;;;4990511;28;20698;-71
2023/05/04 10:40:47;;;;;;;1.60;1.50;;;19.60;46.60;;;;;;4991439;28;20604;-72
2023/05/04 10:43:21;;;;;;;1.70;1.60;;;19.60;46.70;;;;;;5002669;28;20250;-71
2023/05/04 10:45:47;;;;;;;2.57;1.77;;;19.70;46.70;;;;;;4981936;28;20974;-70
2023/05/04 10:48:12;;;;;;;1.37;1.27;;;19.60;46.60;;;;;;5000465;28;20487;-71
2023/05/04 10:50:45;;;;;;;1.93;1.47;;;19.60;46.60;;;;;;5003114;28;20226;-70
2023/05/04 10:53:12;;;;;;;1.67;1.57;;;19.60;46.50;;;;;;5008956;28;20230;-70
2023/05/04 10:55:42;;;;;;;1.63;1.53;;;19.60;46.50;;;;;;5006984;28;20593;-71
2023/05/04 10:58:09;;;;;;;1.70;1.60;;;19.60;46.50;;;;;;5009065;28;21037;-71
2023/05/04 11:00:40;;;;;;;1.60;1.50;;;19.60;46.50;;;;;;5012021;28;20511;-71
2023/05/04 11:03:06;;;;;;;1.77;1.67;;;19.70;46.50;;;;;;5009926;28;20492;-72
2023/05/04 11:05:42;;;;;;;1.70;1.60;;;19.70;46.50;;;;;;4997641;28;20511;-71
2023/05/04 11:08:23;;;;;;;1.80;1.70;;;19.70;46.50;;;;;;4994039;28;20463;-70
2023/05/04 11:11:01;;;;;;;1.80;1.70;;;19.70;46.50;;;;;;4998817;28;20798;-70
2023/05/04 11:13:29;;;;;;;1.70;1.60;;;19.70;46.50;;;;;;5005924;28;20449;-70
2023/05/04 11:15:55;;;;;;;1.53;1.43;;;19.70;46.50;;;;;;4994301;28;20844;-70
2023/05/04 11:18:32;;;;;;;1.60;1.50;;;19.70;46.50;;;;;;5012254;28;20455;-69
2023/05/04 11:20:58;;;;;;;1.90;1.80;;;19.70;46.40;;;;;;5012029;28;20227;-70
2023/05/04 11:23:24;;;;;;;2.13;2.03;;;19.70;46.40;;;;;;5009716;28;20537;-69
2023/05/04 11:25:50;;;;;;;1.70;1.60;;;19.70;46.40;;;;;;5012715;28;20219;-69
2023/05/04 11:28:16;;;;;;;1.80;1.67;;;19.70;46.30;;;;;;5008287;28;20219;-69
2023/05/04 11:30:43;;;;;;;1.70;1.60;;;19.70;46.40;;;;;;5011373;28;20226;-69
2023/05/04 11:33:11;;;;;;;1.70;1.60;;;19.70;46.30;;;;;;5010465;28;20257;-71
2023/05/04 11:35:37;;;;;;;1.67;1.57;;;19.70;46.30;;;;;;4987856;28;20422;-72
2023/05/04 11:38:02;;;;;;;1.90;1.80;;;19.70;46.30;;;;;;5003769;28;20530;-71
2023/05/04 11:40:28;;;;;;;1.80;1.70;;;19.70;46.20;;;;;;5006006;28;20428;-72
2023/05/04 11:42:56;;;;;;;1.70;1.60;;;19.70;46.30;;;;;;4999384;28;20226;-71
2023/05/04 11:45:22;;;;;;;2.27;2.17;;;19.70;46.20;;;;;;4994022;28;20209;-70
2023/05/04 11:47:50;;;;;;;2.17;2.07;;;19.70;46.30;;;;;;5008886;28;20449;-71
2023/05/04 11:50:18;;;;;;;1.67;1.57;;;19.70;46.30;;;;;;4998668;28;20506;-71
2023/05/04 11:52:44;;;;;;;1.80;1.70;;;19.70;46.20;;;;;;4995767;28;20803;-71
2023/05/04 11:55:12;;;;;;;1.90;1.80;;;19.70;46.20;;;;;;4986796;28;20432;-71
2023/05/04 11:57:37;;;;;;;1.63;1.53;;;19.70;46.20;;;;;;5004847;28;20974;-72
2023/05/04 12:00:07;;;;;;;1.80;1.70;;;19.70;46.20;;;;;;5000604;28;20461;-72
2023/05/04 12:02:34;;;;;;;1.60;1.50;;;19.70;46.20;;;;;;5014155;28;20708;-71
2023/05/04 12:05:00;;;;;;;1.73;1.63;;;19.70;46.20;;;;;;5002459;28;20454;-71
2023/05/04 12:07:27;;;;;;;1.93;1.83;;;19.70;46.20;;;;;;5009909;28;20509;-72
2023/05/04 12:09:52;;;;;;;1.97;1.87;;;19.70;46.20;;;;;;5011733;28;20474;-72
2023/05/04 12:12:20;;;;;;;2.30;2.10;;;19.70;46.10;;;;;;5003790;28;20839;-72
2023/05/04 12:14:55;;;;;;;1.90;1.80;;;19.70;46.10;;;;;;5015570;28;20223;-72
2023/05/04 12:17:21;;;;;;;2.03;1.93;;;19.70;46.10;;;;;;5011352;28;21635;-72
2023/05/04 12:19:54;;;;;;;2.10;2.00;;;19.70;46.10;;;;;;5006070;28;20448;-72
2023/05/04 12:22:31;;;;;;;1.87;1.77;;;19.70;46.10;;;;;;4996374;28;20207;-72
2023/05/04 12:24:58;;;;;;;1.60;1.50;;;19.70;46.00;;;;;;5009799;28;20409;-72
2023/05/04 12:27:25;;;;;;;1.93;1.83;;;19.70;46.10;;;;;;5013127;28;20519;-72
2023/05/04 12:29:50;;;;;;;1.90;1.80;;;19.70;46.00;;;;;;5013194;28;20444;-71
2023/05/04 12:32:16;;;;;;;1.80;1.70;;;19.70;46.00;;;;;;5001283;28;20449;-72
2023/05/04 12:34:42;;;;;;;2.13;1.93;;;19.70;46.00;;;;;;4982511;28;20242;-73
2023/05/04 12:37:08;;;;;;;1.80;1.70;;;19.70;46.00;;;;;;4998943;28;20439;-73
2023/05/04 12:39:34;;;;;;;1.83;1.73;;;19.70;46.70;;;;;;5009651;28;20719;-73
2023/05/04 12:42:00;;;;;;;1.77;1.67;;;19.70;46.00;;;;;;5013165;28;20461;-73
2023/05/04 12:44:26;;;;;;;1.77;1.67;;;19.70;46.00;;;;;;5010819;28;20242;-73
2023/05/04 12:46:52;;;;;;;2.00;1.90;;;19.70;46.00;;;;;;5009728;28;20572;-72